sensor_id;sensor_type;location;lat;lon;timestamp;P1;durP1;ratioP1;P2;durP2;ratioP2
1479;SDS011;732;51.698;4.886;2023-08-20T00:00:05;12.30;;;4.80;;
1479;SDS011;732;51.698;4.886;2023-08-20T00:02:38;24.30;;;5.63;;
1479;SDS011;732;51.698;4.886;2023-08-20T00:05:11;12.70;;;5.63;;
1479;SDS011;732;51.698;4.886;2023-08-20T00:07:43;10.00;;;5.03;;
1479;SDS011;732;51.698;4.886;2023-08-20T00:10:12;8.53;;;5.10;;
1479;SDS011;732;51.698;4.886;2023-08-20T00:12:40;13.50;;;5.30;;
1479;SDS011;732;51.698;4.886;2023-08-20T00:15:09;24.57;;;5.90;;
1479;SDS011;732;51.698;4.886;2023-08-20T00:17:38;13.07;;;5.77;;
1479;SDS011;732;51.698;4.886;2023-08-20T00:20:08;13.00;;;6.20;;
1479;SDS011;732;51.698;4.886;2023-08-20T00:22:39;18.53;;;7.00;;
1479;SDS011;732;51.698;4.886;2023-08-20T00:25:12;34.87;;;6.00;;
1479;SDS011;732;51.698;4.886;2023-08-20T00:27:42;9.97;;;5.30;;
1479;SDS011;732;51.698;4.886;2023-08-20T00:30:11;9.60;;;4.63;;
1479;SDS011;732;51.698;4.886;2023-08-20T00:32:40;11.20;;;4.97;;
1479;SDS011;732;51.698;4.886;2023-08-20T00:35:09;10.80;;;4.70;;
1479;SDS011;732;51.698;4.886;2023-08-20T00:37:38;13.90;;;5.23;;
1479;SDS011;732;51.698;4.886;2023-08-20T00:40:11;12.23;;;5.07;;
1479;SDS011;732;51.698;4.886;2023-08-20T00:42:39;9.50;;;4.30;;
1479;SDS011;732;51.698;4.886;2023-08-20T00:45:08;20.67;;;5.27;;
1479;SDS011;732;51.698;4.886;2023-08-20T00:47:37;12.47;;;4.90;;
1479;SDS011;732;51.698;4.886;2023-08-20T00:50:06;11.97;;;5.30;;
1479;SDS011;732;51.698;4.886;2023-08-20T00:52:37;6.90;;;4.40;;
1479;SDS011;732;51.698;4.886;2023-08-20T00:55:07;7.47;;;4.13;;
1479;SDS011;732;51.698;4.886;2023-08-20T00:57:39;14.57;;;5.13;;
1479;SDS011;732;51.698;4.886;2023-08-20T01:00:08;14.03;;;5.20;;
1479;SDS011;732;51.698;4.886;2023-08-20T01:02:38;10.80;;;4.00;;
1479;SDS011;732;51.698;4.886;2023-08-20T01:05:10;13.67;;;4.60;;
1479;SDS011;732;51.698;4.886;2023-08-20T01:07:43;11.70;;;4.30;;
1479;SDS011;732;51.698;4.886;2023-08-20T01:10:27;10.10;;;4.50;;
1479;SDS011;732;51.698;4.886;2023-08-20T01:13:07;8.17;;;4.43;;
1479;SDS011;732;51.698;4.886;2023-08-20T01:15:37;10.27;;;3.90;;
1479;SDS011;732;51.698;4.886;2023-08-20T01:18:05;10.73;;;4.50;;
1479;SDS011;732;51.698;4.886;2023-08-20T01:20:35;10.73;;;5.00;;
1479;SDS011;732;51.698;4.886;2023-08-20T01:26:32;10.10;;;4.07;;
1479;SDS011;732;51.698;4.886;2023-08-20T01:29:17;10.23;;;4.17;;
1479;SDS011;732;51.698;4.886;2023-08-20T01:31:47;11.00;;;4.13;;
1479;SDS011;732;51.698;4.886;2023-08-20T01:34:18;8.37;;;3.80;;
1479;SDS011;732;51.698;4.886;2023-08-20T01:36:46;11.23;;;3.87;;
1479;SDS011;732;51.698;4.886;2023-08-20T01:39:15;10.17;;;4.00;;
1479;SDS011;732;51.698;4.886;2023-08-20T01:41:45;14.87;;;4.77;;
1479;SDS011;732;51.698;4.886;2023-08-20T01:44:13;9.07;;;3.63;;
1479;SDS011;732;51.698;4.886;2023-08-20T01:46:43;9.80;;;3.80;;
1479;SDS011;732;51.698;4.886;2023-08-20T01:49:11;15.63;;;4.47;;
1479;SDS011;732;51.698;4.886;2023-08-20T01:51:40;9.43;;;3.53;;
1479;SDS011;732;51.698;4.886;2023-08-20T01:54:08;9.10;;;3.53;;
1479;SDS011;732;51.698;4.886;2023-08-20T01:56:36;11.90;;;3.50;;
1479;SDS011;732;51.698;4.886;2023-08-20T01:59:05;7.70;;;3.60;;
1479;SDS011;732;51.698;4.886;2023-08-20T02:01:33;8.17;;;3.37;;
1479;SDS011;732;51.698;4.886;2023-08-20T02:04:03;10.57;;;3.70;;
1479;SDS011;732;51.698;4.886;2023-08-20T02:06:32;7.43;;;3.50;;
1479;SDS011;732;51.698;4.886;2023-08-20T02:09:01;10.27;;;3.40;;
1479;SDS011;732;51.698;4.886;2023-08-20T02:11:31;9.10;;;3.80;;
1479;SDS011;732;51.698;4.886;2023-08-20T02:14:02;14.30;;;3.90;;
1479;SDS011;732;51.698;4.886;2023-08-20T02:16:31;12.90;;;4.53;;
1479;SDS011;732;51.698;4.886;2023-08-20T02:18:59;6.07;;;3.13;;
1479;SDS011;732;51.698;4.886;2023-08-20T02:21:30;6.80;;;3.33;;
1479;SDS011;732;51.698;4.886;2023-08-20T02:23:59;9.00;;;4.33;;
1479;SDS011;732;51.698;4.886;2023-08-20T02:26:27;11.00;;;4.30;;
1479;SDS011;732;51.698;4.886;2023-08-20T02:28:55;26.47;;;5.00;;
1479;SDS011;732;51.698;4.886;2023-08-20T02:31:24;10.47;;;4.80;;
1479;SDS011;732;51.698;4.886;2023-08-20T02:33:56;8.17;;;3.67;;
1479;SDS011;732;51.698;4.886;2023-08-20T02:36:24;12.57;;;4.03;;
1479;SDS011;732;51.698;4.886;2023-08-20T02:38:54;10.00;;;4.10;;
1479;SDS011;732;51.698;4.886;2023-08-20T02:41:22;12.20;;;4.43;;
1479;SDS011;732;51.698;4.886;2023-08-20T02:43:50;14.73;;;4.73;;
1479;SDS011;732;51.698;4.886;2023-08-20T02:46:19;10.70;;;4.67;;
1479;SDS011;732;51.698;4.886;2023-08-20T02:48:48;22.63;;;5.43;;
1479;SDS011;732;51.698;4.886;2023-08-20T02:51:16;10.03;;;5.40;;
1479;SDS011;732;51.698;4.886;2023-08-20T02:53:45;15.33;;;4.70;;
1479;SDS011;732;51.698;4.886;2023-08-20T02:56:14;11.63;;;4.53;;
1479;SDS011;732;51.698;4.886;2023-08-20T02:58:43;13.47;;;5.60;;
1479;SDS011;732;51.698;4.886;2023-08-20T03:01:18;14.33;;;5.70;;
1479;SDS011;732;51.698;4.886;2023-08-20T03:03:48;14.20;;;6.30;;
1479;SDS011;732;51.698;4.886;2023-08-20T03:06:17;16.30;;;5.70;;
1479;SDS011;732;51.698;4.886;2023-08-20T03:08:45;18.53;;;5.60;;
1479;SDS011;732;51.698;4.886;2023-08-20T03:11:16;12.97;;;5.20;;
1479;SDS011;732;51.698;4.886;2023-08-20T03:13:45;15.37;;;6.10;;
1479;SDS011;732;51.698;4.886;2023-08-20T03:16:13;18.57;;;6.60;;
1479;SDS011;732;51.698;4.886;2023-08-20T03:18:42;11.80;;;5.80;;
1479;SDS011;732;51.698;4.886;2023-08-20T03:21:10;14.63;;;5.80;;
1479;SDS011;732;51.698;4.886;2023-08-20T03:23:39;13.53;;;5.50;;
1479;SDS011;732;51.698;4.886;2023-08-20T03:26:07;12.40;;;5.60;;
1479;SDS011;732;51.698;4.886;2023-08-20T03:28:37;11.93;;;5.00;;
1479;SDS011;732;51.698;4.886;2023-08-20T03:31:05;10.10;;;4.90;;
1479;SDS011;732;51.698;4.886;2023-08-20T03:33:38;12.20;;;5.30;;
1479;SDS011;732;51.698;4.886;2023-08-20T03:36:06;13.07;;;5.10;;
1479;SDS011;732;51.698;4.886;2023-08-20T03:38:35;9.83;;;5.37;;
1479;SDS011;732;51.698;4.886;2023-08-20T03:41:04;13.07;;;5.60;;
1479;SDS011;732;51.698;4.886;2023-08-20T03:43:32;13.50;;;5.77;;
1479;SDS011;732;51.698;4.886;2023-08-20T03:46:02;13.10;;;5.50;;
1479;SDS011;732;51.698;4.886;2023-08-20T03:48:31;12.43;;;5.17;;
1479;SDS011;732;51.698;4.886;2023-08-20T03:50:59;15.30;;;5.60;;
1479;SDS011;732;51.698;4.886;2023-08-20T03:53:28;14.57;;;6.00;;
1479;SDS011;732;51.698;4.886;2023-08-20T03:55:56;12.30;;;5.10;;
1479;SDS011;732;51.698;4.886;2023-08-20T03:58:24;16.00;;;6.00;;
1479;SDS011;732;51.698;4.886;2023-08-20T04:00:53;16.30;;;5.70;;
1479;SDS011;732;51.698;4.886;2023-08-20T04:03:23;9.97;;;5.20;;
1479;SDS011;732;51.698;4.886;2023-08-20T04:05:51;12.87;;;5.60;;
1479;SDS011;732;51.698;4.886;2023-08-20T04:08:19;15.80;;;6.07;;
1479;SDS011;732;51.698;4.886;2023-08-20T04:10:51;11.43;;;5.40;;
1479;SDS011;732;51.698;4.886;2023-08-20T04:13:20;15.47;;;5.37;;
1479;SDS011;732;51.698;4.886;2023-08-20T04:15:48;11.40;;;5.77;;
1479;SDS011;732;51.698;4.886;2023-08-20T04:18:17;13.73;;;5.77;;
1479;SDS011;732;51.698;4.886;2023-08-20T04:20:51;8.83;;;5.10;;
1479;SDS011;732;51.698;4.886;2023-08-20T04:23:20;14.37;;;5.97;;
1479;SDS011;732;51.698;4.886;2023-08-20T04:25:49;12.50;;;4.90;;
1479;SDS011;732;51.698;4.886;2023-08-20T04:28:17;13.60;;;5.63;;
1479;SDS011;732;51.698;4.886;2023-08-20T04:30:45;13.67;;;5.33;;
1479;SDS011;732;51.698;4.886;2023-08-20T04:33:16;15.23;;;4.77;;
1479;SDS011;732;51.698;4.886;2023-08-20T04:35:45;14.93;;;6.50;;
1479;SDS011;732;51.698;4.886;2023-08-20T04:38:15;12.47;;;5.30;;
1479;SDS011;732;51.698;4.886;2023-08-20T04:40:45;11.57;;;5.60;;
1479;SDS011;732;51.698;4.886;2023-08-20T04:43:14;19.97;;;5.80;;
1479;SDS011;732;51.698;4.886;2023-08-20T04:45:43;13.30;;;5.43;;
1479;SDS011;732;51.698;4.886;2023-08-20T04:48:11;18.30;;;6.13;;
1479;SDS011;732;51.698;4.886;2023-08-20T04:50:39;12.00;;;5.60;;
1479;SDS011;732;51.698;4.886;2023-08-20T04:53:08;17.30;;;6.10;;
1479;SDS011;732;51.698;4.886;2023-08-20T04:55:37;13.17;;;6.37;;
1479;SDS011;732;51.698;4.886;2023-08-20T04:58:07;15.27;;;5.53;;
1479;SDS011;732;51.698;4.886;2023-08-20T05:00:35;13.37;;;6.70;;
1479;SDS011;732;51.698;4.886;2023-08-20T05:03:10;24.70;;;7.63;;
1479;SDS011;732;51.698;4.886;2023-08-20T05:05:39;16.27;;;6.27;;
1479;SDS011;732;51.698;4.886;2023-08-20T05:08:07;12.47;;;5.50;;
1479;SDS011;732;51.698;4.886;2023-08-20T05:10:38;18.07;;;5.63;;
1479;SDS011;732;51.698;4.886;2023-08-20T05:13:06;9.00;;;5.53;;
1479;SDS011;732;51.698;4.886;2023-08-20T05:15:35;12.60;;;6.00;;
1479;SDS011;732;51.698;4.886;2023-08-20T05:18:04;16.20;;;6.73;;
1479;SDS011;732;51.698;4.886;2023-08-20T05:20:33;13.03;;;5.67;;
1479;SDS011;732;51.698;4.886;2023-08-20T05:23:01;11.63;;;5.80;;
1479;SDS011;732;51.698;4.886;2023-08-20T05:25:32;12.70;;;6.43;;
1479;SDS011;732;51.698;4.886;2023-08-20T05:28:01;13.67;;;6.50;;
1479;SDS011;732;51.698;4.886;2023-08-20T05:30:33;24.90;;;8.10;;
1479;SDS011;732;51.698;4.886;2023-08-20T05:33:02;17.33;;;7.33;;
1479;SDS011;732;51.698;4.886;2023-08-20T05:35:35;18.33;;;8.03;;
1479;SDS011;732;51.698;4.886;2023-08-20T05:38:03;22.53;;;8.20;;
1479;SDS011;732;51.698;4.886;2023-08-20T05:40:32;13.00;;;7.60;;
1479;SDS011;732;51.698;4.886;2023-08-20T05:43:02;15.10;;;8.13;;
1479;SDS011;732;51.698;4.886;2023-08-20T05:45:31;15.97;;;7.70;;
1479;SDS011;732;51.698;4.886;2023-08-20T05:48:00;15.63;;;7.13;;
1479;SDS011;732;51.698;4.886;2023-08-20T05:50:28;16.83;;;7.80;;
1479;SDS011;732;51.698;4.886;2023-08-20T05:52:56;13.80;;;7.23;;
1479;SDS011;732;51.698;4.886;2023-08-20T05:55:26;13.10;;;7.20;;
1479;SDS011;732;51.698;4.886;2023-08-20T05:57:55;12.83;;;5.97;;
1479;SDS011;732;51.698;4.886;2023-08-20T06:00:24;18.40;;;8.57;;
1479;SDS011;732;51.698;4.886;2023-08-20T06:02:52;17.10;;;7.50;;
1479;SDS011;732;51.698;4.886;2023-08-20T06:05:21;21.37;;;7.43;;
1479;SDS011;732;51.698;4.886;2023-08-20T06:07:49;16.53;;;7.23;;
1479;SDS011;732;51.698;4.886;2023-08-20T06:10:17;16.20;;;7.00;;
1479;SDS011;732;51.698;4.886;2023-08-20T06:12:46;17.50;;;7.40;;
1479;SDS011;732;51.698;4.886;2023-08-20T06:15:14;18.50;;;7.77;;
1479;SDS011;732;51.698;4.886;2023-08-20T06:17:44;16.47;;;6.83;;
1479;SDS011;732;51.698;4.886;2023-08-20T06:20:13;12.40;;;5.70;;
1479;SDS011;732;51.698;4.886;2023-08-20T06:22:41;13.70;;;6.30;;
1479;SDS011;732;51.698;4.886;2023-08-20T06:25:11;18.20;;;6.43;;
1479;SDS011;732;51.698;4.886;2023-08-20T06:27:39;15.73;;;6.73;;
1479;SDS011;732;51.698;4.886;2023-08-20T06:30:09;12.90;;;5.90;;
1479;SDS011;732;51.698;4.886;2023-08-20T06:32:38;15.57;;;5.43;;
1479;SDS011;732;51.698;4.886;2023-08-20T06:35:08;11.67;;;5.27;;
1479;SDS011;732;51.698;4.886;2023-08-20T06:37:38;12.47;;;5.67;;
1479;SDS011;732;51.698;4.886;2023-08-20T06:40:07;11.70;;;4.23;;
1479;SDS011;732;51.698;4.886;2023-08-20T06:42:37;14.17;;;4.77;;
1479;SDS011;732;51.698;4.886;2023-08-20T06:45:06;10.80;;;4.90;;
1479;SDS011;732;51.698;4.886;2023-08-20T06:47:36;12.10;;;4.47;;
1479;SDS011;732;51.698;4.886;2023-08-20T06:50:05;13.07;;;4.40;;
1479;SDS011;732;51.698;4.886;2023-08-20T06:52:35;9.73;;;4.67;;
1479;SDS011;732;51.698;4.886;2023-08-20T06:55:04;11.60;;;4.60;;
1479;SDS011;732;51.698;4.886;2023-08-20T06:57:33;11.83;;;4.57;;
1479;SDS011;732;51.698;4.886;2023-08-20T07:00:02;13.33;;;4.93;;
1479;SDS011;732;51.698;4.886;2023-08-20T07:02:32;11.57;;;4.67;;
1479;SDS011;732;51.698;4.886;2023-08-20T07:05:01;9.87;;;4.80;;
1479;SDS011;732;51.698;4.886;2023-08-20T07:07:29;12.53;;;4.33;;
1479;SDS011;732;51.698;4.886;2023-08-20T07:09:59;11.93;;;4.50;;
1479;SDS011;732;51.698;4.886;2023-08-20T07:12:28;12.47;;;4.30;;
1479;SDS011;732;51.698;4.886;2023-08-20T07:14:56;11.60;;;3.70;;
1479;SDS011;732;51.698;4.886;2023-08-20T07:17:25;7.07;;;3.83;;
1479;SDS011;732;51.698;4.886;2023-08-20T07:19:54;12.20;;;3.60;;
1479;SDS011;732;51.698;4.886;2023-08-20T07:22:22;5.80;;;3.10;;
1479;SDS011;732;51.698;4.886;2023-08-20T07:24:51;10.23;;;3.27;;
1479;SDS011;732;51.698;4.886;2023-08-20T07:27:21;8.43;;;3.00;;
1479;SDS011;732;51.698;4.886;2023-08-20T07:29:49;9.17;;;3.13;;
1479;SDS011;732;51.698;4.886;2023-08-20T07:32:18;9.87;;;3.43;;
1479;SDS011;732;51.698;4.886;2023-08-20T07:34:46;6.13;;;2.80;;
1479;SDS011;732;51.698;4.886;2023-08-20T07:37:16;10.67;;;3.70;;
1479;SDS011;732;51.698;4.886;2023-08-20T07:39:44;9.57;;;3.03;;
1479;SDS011;732;51.698;4.886;2023-08-20T07:42:13;16.33;;;3.00;;
1479;SDS011;732;51.698;4.886;2023-08-20T07:44:43;5.27;;;2.40;;
1479;SDS011;732;51.698;4.886;2023-08-20T07:47:11;10.17;;;2.90;;
1479;SDS011;732;51.698;4.886;2023-08-20T07:49:40;11.10;;;3.00;;
1479;SDS011;732;51.698;4.886;2023-08-20T07:52:08;10.30;;;2.80;;
1479;SDS011;732;51.698;4.886;2023-08-20T07:54:37;10.07;;;2.73;;
1479;SDS011;732;51.698;4.886;2023-08-20T07:57:05;9.87;;;3.13;;
1479;SDS011;732;51.698;4.886;2023-08-20T07:59:33;8.30;;;2.67;;
1479;SDS011;732;51.698;4.886;2023-08-20T08:02:03;7.77;;;2.67;;
1479;SDS011;732;51.698;4.886;2023-08-20T08:04:33;11.60;;;3.43;;
1479;SDS011;732;51.698;4.886;2023-08-20T08:07:01;8.60;;;2.83;;
1479;SDS011;732;51.698;4.886;2023-08-20T08:09:30;5.93;;;2.33;;
1479;SDS011;732;51.698;4.886;2023-08-20T08:11:59;5.10;;;2.47;;
1479;SDS011;732;51.698;4.886;2023-08-20T08:14:28;8.63;;;2.83;;
1479;SDS011;732;51.698;4.886;2023-08-20T08:16:57;4.77;;;2.20;;
1479;SDS011;732;51.698;4.886;2023-08-20T08:19:27;12.80;;;3.17;;
1479;SDS011;732;51.698;4.886;2023-08-20T08:21:55;13.77;;;3.30;;
1479;SDS011;732;51.698;4.886;2023-08-20T08:24:24;12.27;;;3.50;;
1479;SDS011;732;51.698;4.886;2023-08-20T08:26:52;11.00;;;3.37;;
1479;SDS011;732;51.698;4.886;2023-08-20T08:29:21;6.50;;;3.07;;
1479;SDS011;732;51.698;4.886;2023-08-20T08:31:49;10.10;;;3.30;;
1479;SDS011;732;51.698;4.886;2023-08-20T08:34:18;7.03;;;2.80;;
1479;SDS011;732;51.698;4.886;2023-08-20T08:36:49;10.33;;;2.90;;
1479;SDS011;732;51.698;4.886;2023-08-20T08:39:17;5.27;;;2.57;;
1479;SDS011;732;51.698;4.886;2023-08-20T08:41:45;10.00;;;3.33;;
1479;SDS011;732;51.698;4.886;2023-08-20T08:44:21;7.07;;;2.40;;
1479;SDS011;732;51.698;4.886;2023-08-20T08:46:50;8.13;;;2.63;;
1479;SDS011;732;51.698;4.886;2023-08-20T08:49:19;9.30;;;2.73;;
1479;SDS011;732;51.698;4.886;2023-08-20T08:51:49;6.80;;;2.50;;
1479;SDS011;732;51.698;4.886;2023-08-20T08:54:20;6.10;;;2.20;;
1479;SDS011;732;51.698;4.886;2023-08-20T08:56:49;8.67;;;2.80;;
1479;SDS011;732;51.698;4.886;2023-08-20T08:59:18;9.50;;;2.60;;
1479;SDS011;732;51.698;4.886;2023-08-20T09:01:47;6.00;;;2.40;;
1479;SDS011;732;51.698;4.886;2023-08-20T09:04:16;5.63;;;2.53;;
1479;SDS011;732;51.698;4.886;2023-08-20T09:06:45;9.13;;;2.70;;
1479;SDS011;732;51.698;4.886;2023-08-20T09:09:17;9.43;;;3.07;;
1479;SDS011;732;51.698;4.886;2023-08-20T09:11:47;8.83;;;2.90;;
1479;SDS011;732;51.698;4.886;2023-08-20T09:14:20;9.13;;;2.53;;
1479;SDS011;732;51.698;4.886;2023-08-20T09:16:57;9.47;;;3.37;;
1479;SDS011;732;51.698;4.886;2023-08-20T09:19:27;8.70;;;2.37;;
1479;SDS011;732;51.698;4.886;2023-08-20T09:21:59;12.93;;;2.60;;
1479;SDS011;732;51.698;4.886;2023-08-20T09:24:33;4.43;;;2.17;;
1479;SDS011;732;51.698;4.886;2023-08-20T09:27:08;7.00;;;2.77;;
1479;SDS011;732;51.698;4.886;2023-08-20T09:29:43;9.60;;;2.50;;
1479;SDS011;732;51.698;4.886;2023-08-20T09:32:16;7.80;;;2.30;;
1479;SDS011;732;51.698;4.886;2023-08-20T09:34:48;8.10;;;2.27;;
1479;SDS011;732;51.698;4.886;2023-08-20T09:37:19;6.87;;;2.13;;
1479;SDS011;732;51.698;4.886;2023-08-20T09:39:50;3.17;;;1.50;;
1479;SDS011;732;51.698;4.886;2023-08-20T09:42:18;6.70;;;2.10;;
1479;SDS011;732;51.698;4.886;2023-08-20T09:44:47;10.10;;;2.33;;
1479;SDS011;732;51.698;4.886;2023-08-20T09:47:17;6.50;;;1.87;;
1479;SDS011;732;51.698;4.886;2023-08-20T09:49:48;4.57;;;1.73;;
1479;SDS011;732;51.698;4.886;2023-08-20T09:52:21;4.90;;;1.60;;
1479;SDS011;732;51.698;4.886;2023-08-20T09:55:02;3.03;;;1.20;;
1479;SDS011;732;51.698;4.886;2023-08-20T09:57:37;5.30;;;2.03;;
1479;SDS011;732;51.698;4.886;2023-08-20T10:00:12;7.57;;;1.70;;
1479;SDS011;732;51.698;4.886;2023-08-20T10:02:42;5.83;;;1.70;;
1479;SDS011;732;51.698;4.886;2023-08-20T10:05:12;3.30;;;1.40;;
1479;SDS011;732;51.698;4.886;2023-08-20T10:07:42;4.47;;;1.53;;
1479;SDS011;732;51.698;4.886;2023-08-20T10:10:12;8.97;;;2.03;;
1479;SDS011;732;51.698;4.886;2023-08-20T10:12:43;5.30;;;1.80;;
1479;SDS011;732;51.698;4.886;2023-08-20T10:15:12;4.63;;;1.60;;
1479;SDS011;732;51.698;4.886;2023-08-20T10:17:42;2.73;;;1.30;;
1479;SDS011;732;51.698;4.886;2023-08-20T10:20:13;4.63;;;1.30;;
1479;SDS011;732;51.698;4.886;2023-08-20T10:22:43;4.93;;;1.50;;
1479;SDS011;732;51.698;4.886;2023-08-20T10:25:22;4.27;;;1.60;;
1479;SDS011;732;51.698;4.886;2023-08-20T10:27:52;5.30;;;1.70;;
1479;SDS011;732;51.698;4.886;2023-08-20T10:30:38;6.20;;;1.67;;
1479;SDS011;732;51.698;4.886;2023-08-20T10:33:26;8.17;;;2.30;;
1479;SDS011;732;51.698;4.886;2023-08-20T10:35:55;5.50;;;2.10;;
1479;SDS011;732;51.698;4.886;2023-08-20T10:38:23;4.83;;;1.83;;
1479;SDS011;732;51.698;4.886;2023-08-20T10:40:53;8.53;;;2.37;;
1479;SDS011;732;51.698;4.886;2023-08-20T10:43:26;6.90;;;2.00;;
1479;SDS011;732;51.698;4.886;2023-08-20T10:46:05;6.00;;;1.70;;
1479;SDS011;732;51.698;4.886;2023-08-20T10:48:53;7.20;;;2.63;;
1479;SDS011;732;51.698;4.886;2023-08-20T10:51:24;6.13;;;1.80;;
1479;SDS011;732;51.698;4.886;2023-08-20T10:54:04;4.97;;;1.67;;
1479;SDS011;732;51.698;4.886;2023-08-20T10:56:43;6.17;;;2.17;;
1479;SDS011;732;51.698;4.886;2023-08-20T10:59:13;4.80;;;2.10;;
1479;SDS011;732;51.698;4.886;2023-08-20T11:01:45;8.57;;;1.97;;
1479;SDS011;732;51.698;4.886;2023-08-20T11:04:14;5.77;;;1.87;;
1479;SDS011;732;51.698;4.886;2023-08-20T11:06:45;6.53;;;1.83;;
1479;SDS011;732;51.698;4.886;2023-08-20T11:09:20;4.47;;;1.87;;
1479;SDS011;732;51.698;4.886;2023-08-20T11:11:52;4.57;;;1.40;;
1479;SDS011;732;51.698;4.886;2023-08-20T11:14:20;4.07;;;1.57;;
1479;SDS011;732;51.698;4.886;2023-08-20T11:16:49;5.37;;;1.73;;
1479;SDS011;732;51.698;4.886;2023-08-20T11:19:19;5.77;;;1.77;;
1479;SDS011;732;51.698;4.886;2023-08-20T11:21:49;4.23;;;1.80;;
1479;SDS011;732;51.698;4.886;2023-08-20T11:24:18;4.60;;;1.90;;
1479;SDS011;732;51.698;4.886;2023-08-20T11:26:48;6.77;;;2.47;;
1479;SDS011;732;51.698;4.886;2023-08-20T11:29:19;9.63;;;2.10;;
1479;SDS011;732;51.698;4.886;2023-08-20T11:31:48;5.20;;;1.83;;
1479;SDS011;732;51.698;4.886;2023-08-20T11:34:18;3.67;;;1.50;;
1479;SDS011;732;51.698;4.886;2023-08-20T11:36:47;7.40;;;2.30;;
1479;SDS011;732;51.698;4.886;2023-08-20T11:39:18;3.70;;;1.80;;
1479;SDS011;732;51.698;4.886;2023-08-20T11:41:47;6.47;;;2.30;;
1479;SDS011;732;51.698;4.886;2023-08-20T11:44:20;5.17;;;1.80;;
1479;SDS011;732;51.698;4.886;2023-08-20T11:46:49;4.20;;;1.83;;
1479;SDS011;732;51.698;4.886;2023-08-20T11:49:20;5.57;;;1.60;;
1479;SDS011;732;51.698;4.886;2023-08-20T11:51:56;5.37;;;1.70;;
1479;SDS011;732;51.698;4.886;2023-08-20T11:54:25;5.50;;;1.60;;
1479;SDS011;732;51.698;4.886;2023-08-20T11:57:01;4.80;;;1.90;;
1479;SDS011;732;51.698;4.886;2023-08-20T11:59:33;5.13;;;1.83;;
1479;SDS011;732;51.698;4.886;2023-08-20T12:02:01;4.83;;;1.60;;
1479;SDS011;732;51.698;4.886;2023-08-20T12:04:31;4.87;;;1.50;;
1479;SDS011;732;51.698;4.886;2023-08-20T12:07:04;4.90;;;1.80;;
1479;SDS011;732;51.698;4.886;2023-08-20T12:09:33;7.27;;;1.60;;
1479;SDS011;732;51.698;4.886;2023-08-20T12:12:05;5.70;;;1.87;;
1479;SDS011;732;51.698;4.886;2023-08-20T12:14:36;4.80;;;1.53;;
1479;SDS011;732;51.698;4.886;2023-08-20T12:17:06;4.90;;;2.00;;
1479;SDS011;732;51.698;4.886;2023-08-20T12:19:35;10.43;;;2.17;;
1479;SDS011;732;51.698;4.886;2023-08-20T12:22:04;4.37;;;1.40;;
1479;SDS011;732;51.698;4.886;2023-08-20T12:24:32;6.77;;;2.00;;
1479;SDS011;732;51.698;4.886;2023-08-20T12:27:02;7.57;;;1.97;;
1479;SDS011;732;51.698;4.886;2023-08-20T12:29:31;6.13;;;1.67;;
1479;SDS011;732;51.698;4.886;2023-08-20T12:32:00;4.93;;;1.53;;
1479;SDS011;732;51.698;4.886;2023-08-20T12:34:30;4.10;;;1.60;;
1479;SDS011;732;51.698;4.886;2023-08-20T12:36:58;6.30;;;1.60;;
1479;SDS011;732;51.698;4.886;2023-08-20T12:39:27;4.10;;;1.50;;
1479;SDS011;732;51.698;4.886;2023-08-20T12:41:55;3.80;;;1.40;;
1479;SDS011;732;51.698;4.886;2023-08-20T12:44:24;5.67;;;1.50;;
1479;SDS011;732;51.698;4.886;2023-08-20T12:46:52;4.93;;;2.00;;
1479;SDS011;732;51.698;4.886;2023-08-20T12:49:22;5.67;;;1.40;;
1479;SDS011;732;51.698;4.886;2023-08-20T12:51:50;7.83;;;1.60;;
1479;SDS011;732;51.698;4.886;2023-08-20T12:54:18;6.93;;;1.70;;
1479;SDS011;732;51.698;4.886;2023-08-20T12:56:47;5.10;;;1.73;;
1479;SDS011;732;51.698;4.886;2023-08-20T12:59:15;4.10;;;1.80;;
1479;SDS011;732;51.698;4.886;2023-08-20T13:01:44;3.40;;;1.33;;
1479;SDS011;732;51.698;4.886;2023-08-20T13:04:13;4.77;;;1.40;;
1479;SDS011;732;51.698;4.886;2023-08-20T13:06:44;4.03;;;1.40;;
1479;SDS011;732;51.698;4.886;2023-08-20T13:09:14;3.87;;;1.30;;
1479;SDS011;732;51.698;4.886;2023-08-20T13:11:43;4.93;;;1.40;;
1479;SDS011;732;51.698;4.886;2023-08-20T13:14:14;5.20;;;1.53;;
1479;SDS011;732;51.698;4.886;2023-08-20T13:16:43;5.13;;;1.70;;
1479;SDS011;732;51.698;4.886;2023-08-20T13:19:12;6.00;;;2.27;;
1479;SDS011;732;51.698;4.886;2023-08-20T13:21:41;6.00;;;2.13;;
1479;SDS011;732;51.698;4.886;2023-08-20T13:24:11;5.50;;;1.30;;
1479;SDS011;732;51.698;4.886;2023-08-20T13:26:39;4.27;;;1.40;;
1479;SDS011;732;51.698;4.886;2023-08-20T13:29:08;3.60;;;1.40;;
1479;SDS011;732;51.698;4.886;2023-08-20T13:31:37;7.03;;;2.03;;
1479;SDS011;732;51.698;4.886;2023-08-20T13:34:05;3.77;;;1.43;;
1479;SDS011;732;51.698;4.886;2023-08-20T13:36:33;8.70;;;2.20;;
1479;SDS011;732;51.698;4.886;2023-08-20T13:39:06;5.70;;;1.73;;
1479;SDS011;732;51.698;4.886;2023-08-20T13:41:34;5.10;;;1.57;;
1479;SDS011;732;51.698;4.886;2023-08-20T13:44:03;6.93;;;1.70;;
1479;SDS011;732;51.698;4.886;2023-08-20T13:46:35;3.70;;;1.47;;
1479;SDS011;732;51.698;4.886;2023-08-20T13:49:03;2.97;;;1.30;;
1479;SDS011;732;51.698;4.886;2023-08-20T13:51:33;6.93;;;1.80;;
1479;SDS011;732;51.698;4.886;2023-08-20T13:54:01;4.53;;;1.60;;
1479;SDS011;732;51.698;4.886;2023-08-20T13:56:32;6.13;;;1.70;;
1479;SDS011;732;51.698;4.886;2023-08-20T13:59:01;6.90;;;1.63;;
1479;SDS011;732;51.698;4.886;2023-08-20T14:01:30;5.40;;;1.60;;
1479;SDS011;732;51.698;4.886;2023-08-20T14:03:58;4.40;;;1.30;;
1479;SDS011;732;51.698;4.886;2023-08-20T14:06:27;3.60;;;1.43;;
1479;SDS011;732;51.698;4.886;2023-08-20T14:08:55;4.80;;;1.67;;
1479;SDS011;732;51.698;4.886;2023-08-20T14:11:24;4.57;;;1.60;;
1479;SDS011;732;51.698;4.886;2023-08-20T14:13:54;5.30;;;1.53;;
1479;SDS011;732;51.698;4.886;2023-08-20T14:16:23;4.30;;;1.63;;
1479;SDS011;732;51.698;4.886;2023-08-20T14:18:51;3.23;;;1.40;;
1479;SDS011;732;51.698;4.886;2023-08-20T14:21:20;4.10;;;1.47;;
1479;SDS011;732;51.698;4.886;2023-08-20T14:23:48;3.93;;;1.30;;
1479;SDS011;732;51.698;4.886;2023-08-20T14:26:17;4.80;;;1.63;;
1479;SDS011;732;51.698;4.886;2023-08-20T14:28:46;6.57;;;1.60;;
1479;SDS011;732;51.698;4.886;2023-08-20T14:31:15;5.43;;;1.60;;
1479;SDS011;732;51.698;4.886;2023-08-20T14:33:45;9.40;;;3.40;;
1479;SDS011;732;51.698;4.886;2023-08-20T14:36:14;3.93;;;1.53;;
1479;SDS011;732;51.698;4.886;2023-08-20T14:38:42;5.03;;;1.70;;
1479;SDS011;732;51.698;4.886;2023-08-20T14:41:10;4.23;;;1.60;;
1479;SDS011;732;51.698;4.886;2023-08-20T14:43:39;5.30;;;1.87;;
1479;SDS011;732;51.698;4.886;2023-08-20T14:46:08;9.47;;;1.60;;
1479;SDS011;732;51.698;4.886;2023-08-20T14:48:38;6.07;;;1.70;;
1479;SDS011;732;51.698;4.886;2023-08-20T14:51:09;4.57;;;1.77;;
1479;SDS011;732;51.698;4.886;2023-08-20T14:53:37;3.13;;;1.43;;
1479;SDS011;732;51.698;4.886;2023-08-20T14:56:06;3.70;;;1.60;;
1479;SDS011;732;51.698;4.886;2023-08-20T14:58:34;4.47;;;1.57;;
1479;SDS011;732;51.698;4.886;2023-08-20T15:01:02;5.37;;;1.57;;
1479;SDS011;732;51.698;4.886;2023-08-20T15:03:31;6.27;;;1.80;;
1479;SDS011;732;51.698;4.886;2023-08-20T15:06:01;5.90;;;1.73;;
1479;SDS011;732;51.698;4.886;2023-08-20T15:08:32;6.47;;;1.73;;
1479;SDS011;732;51.698;4.886;2023-08-20T15:11:00;3.67;;;1.50;;
1479;SDS011;732;51.698;4.886;2023-08-20T15:13:30;6.97;;;2.50;;
1479;SDS011;732;51.698;4.886;2023-08-20T15:15:59;5.27;;;1.80;;
1479;SDS011;732;51.698;4.886;2023-08-20T15:18:28;6.33;;;1.50;;
1479;SDS011;732;51.698;4.886;2023-08-20T15:20:57;3.80;;;1.60;;
1479;SDS011;732;51.698;4.886;2023-08-20T15:23:28;3.73;;;1.40;;
1479;SDS011;732;51.698;4.886;2023-08-20T15:25:58;3.87;;;1.70;;
1479;SDS011;732;51.698;4.886;2023-08-20T15:28:26;5.93;;;1.93;;
1479;SDS011;732;51.698;4.886;2023-08-20T15:30:56;9.00;;;1.83;;
1479;SDS011;732;51.698;4.886;2023-08-20T15:33:25;2.57;;;1.40;;
1479;SDS011;732;51.698;4.886;2023-08-20T15:35:53;4.20;;;1.87;;
1479;SDS011;732;51.698;4.886;2023-08-20T15:38:22;6.30;;;1.73;;
1479;SDS011;732;51.698;4.886;2023-08-20T15:40:54;6.13;;;2.00;;